sensor_id;sensor_type;location;lat;lon;timestamp;temperature;humidity
65034;DHT22;51601;51.356;12.458;2022-10-16T00:02:21;16.40;92.20
65034;DHT22;51601;51.356;12.458;2022-10-16T00:06:34;16.40;92.00
65034;DHT22;51601;51.356;12.458;2022-10-16T00:10:50;16.40;91.90
65034;DHT22;51601;51.356;12.458;2022-10-16T00:15:05;16.30;91.90
65034;DHT22;51601;51.356;12.458;2022-10-16T00:19:19;16.20;92.30
65034;DHT22;51601;51.356;12.458;2022-10-16T00:23:34;16.20;92.80
65034;DHT22;51601;51.356;12.458;2022-10-16T00:27:49;16.20;93.20
65034;DHT22;51601;51.356;12.458;2022-10-16T00:32:03;16.20;93.30
65034;DHT22;51601;51.356;12.458;2022-10-16T00:36:19;16.20;93.40
65034;DHT22;51601;51.356;12.458;2022-10-16T00:40:33;16.20;93.40
65034;DHT22;51601;51.356;12.458;2022-10-16T00:44:51;16.30;93.50
65034;DHT22;51601;51.356;12.458;2022-10-16T00:49:08;16.40;93.40
65034;DHT22;51601;51.356;12.458;2022-10-16T00:53:23;16.50;93.20
65034;DHT22;51601;51.356;12.458;2022-10-16T00:57:39;16.70;92.90
65034;DHT22;51601;51.356;12.458;2022-10-16T01:01:54;16.80;92.60
65034;DHT22;51601;51.356;12.458;2022-10-16T01:06:24;16.80;92.40
65034;DHT22;51601;51.356;12.458;2022-10-16T01:10:41;16.90;92.10
65034;DHT22;51601;51.356;12.458;2022-10-16T01:15:03;16.90;92.00
65034;DHT22;51601;51.356;12.458;2022-10-16T01:19:31;16.80;91.90
65034;DHT22;51601;51.356;12.458;2022-10-16T01:23:55;16.80;91.90
65034;DHT22;51601;51.356;12.458;2022-10-16T01:28:15;16.70;92.10
65034;DHT22;51601;51.356;12.458;2022-10-16T01:33:14;16.70;92.20
65034;DHT22;51601;51.356;12.458;2022-10-16T01:37:54;16.60;92.30
65034;DHT22;51601;51.356;12.458;2022-10-16T01:42:15;16.60;92.60
65034;DHT22;51601;51.356;12.458;2022-10-16T01:46:33;16.50;92.70
65034;DHT22;51601;51.356;12.458;2022-10-16T01:50:52;16.50;92.90
65034;DHT22;51601;51.356;12.458;2022-10-16T01:55:08;16.40;93.00
65034;DHT22;51601;51.356;12.458;2022-10-16T01:59:25;16.40;93.10
65034;DHT22;51601;51.356;12.458;2022-10-16T02:03:43;16.40;93.50
65034;DHT22;51601;51.356;12.458;2022-10-16T02:07:58;16.40;93.10
65034;DHT22;51601;51.356;12.458;2022-10-16T02:12:23;16.40;93.10
65034;DHT22;51601;51.356;12.458;2022-10-16T02:16:41;16.30;93.20
65034;DHT22;51601;51.356;12.458;2022-10-16T02:21:02;16.30;93.50
65034;DHT22;51601;51.356;12.458;2022-10-16T02:25:22;16.20;93.60
65034;DHT22;51601;51.356;12.458;2022-10-16T02:29:40;16.20;93.80
65034;DHT22;51601;51.356;12.458;2022-10-16T02:33:58;16.20;93.70
65034;DHT22;51601;51.356;12.458;2022-10-16T02:38:16;16.20;94.00
65034;DHT22;51601;51.356;12.458;2022-10-16T02:42:34;16.20;94.20
65034;DHT22;51601;51.356;12.458;2022-10-16T02:46:48;16.20;94.20
65034;DHT22;51601;51.356;12.458;2022-10-16T02:51:02;16.20;94.10
65034;DHT22;51601;51.356;12.458;2022-10-16T02:55:17;16.20;94.10
65034;DHT22;51601;51.356;12.458;2022-10-16T02:59:30;16.10;94.20
65034;DHT22;51601;51.356;12.458;2022-10-16T03:03:44;16.10;94.40
65034;DHT22;51601;51.356;12.458;2022-10-16T03:07:58;16.00;94.40
65034;DHT22;51601;51.356;12.458;2022-10-16T03:12:14;16.00;94.50
65034;DHT22;51601;51.356;12.458;2022-10-16T03:16:27;16.00;94.70
65034;DHT22;51601;51.356;12.458;2022-10-16T03:20:42;16.00;94.80
65034;DHT22;51601;51.356;12.458;2022-10-16T03:24:56;16.00;94.90
65034;DHT22;51601;51.356;12.458;2022-10-16T03:29:11;16.00;95.00
65034;DHT22;51601;51.356;12.458;2022-10-16T03:33:25;16.00;95.10
65034;DHT22;51601;51.356;12.458;2022-10-16T03:37:39;15.90;95.20
65034;DHT22;51601;51.356;12.458;2022-10-16T03:41:52;15.90;95.30
65034;DHT22;51601;51.356;12.458;2022-10-16T03:46:07;16.00;95.30
65034;DHT22;51601;51.356;12.458;2022-10-16T03:50:21;16.00;95.30
65034;DHT22;51601;51.356;12.458;2022-10-16T03:54:35;16.00;95.10
65034;DHT22;51601;51.356;12.458;2022-10-16T03:58:49;16.00;95.20
65034;DHT22;51601;51.356;12.458;2022-10-16T04:03:04;16.00;95.40
65034;DHT22;51601;51.356;12.458;2022-10-16T04:07:17;15.90;95.60
65034;DHT22;51601;51.356;12.458;2022-10-16T04:11:31;15.90;95.80
65034;DHT22;51601;51.356;12.458;2022-10-16T04:15:45;15.90;95.90
65034;DHT22;51601;51.356;12.458;2022-10-16T04:20:01;15.90;95.90
65034;DHT22;51601;51.356;12.458;2022-10-16T04:24:14;15.90;95.90
65034;DHT22;51601;51.356;12.458;2022-10-16T04:28:28;15.90;95.80
65034;DHT22;51601;51.356;12.458;2022-10-16T04:32:42;15.90;95.80
65034;DHT22;51601;51.356;12.458;2022-10-16T04:36:58;15.80;95.80
65034;DHT22;51601;51.356;12.458;2022-10-16T04:41:12;15.80;95.80
65034;DHT22;51601;51.356;12.458;2022-10-16T04:45:25;15.70;95.80
65034;DHT22;51601;51.356;12.458;2022-10-16T04:49:39;15.70;95.80
65034;DHT22;51601;51.356;12.458;2022-10-16T04:53:54;15.70;95.90
65034;DHT22;51601;51.356;12.458;2022-10-16T04:58:08;15.60;96.00
65034;DHT22;51601;51.356;12.458;2022-10-16T05:02:22;15.50;96.10
65034;DHT22;51601;51.356;12.458;2022-10-16T05:06:36;15.50;96.20
65034;DHT22;51601;51.356;12.458;2022-10-16T05:10:52;15.60;96.30
65034;DHT22;51601;51.356;12.458;2022-10-16T05:15:06;15.60;96.30
65034;DHT22;51601;51.356;12.458;2022-10-16T05:19:20;15.60;96.20
65034;DHT22;51601;51.356;12.458;2022-10-16T05:23:39;15.60;96.10
65034;DHT22;51601;51.356;12.458;2022-10-16T05:27:54;15.60;96.00
65034;DHT22;51601;51.356;12.458;2022-10-16T05:32:08;15.60;95.90
65034;DHT22;51601;51.356;12.458;2022-10-16T05:36:22;15.60;96.00
65034;DHT22;51601;51.356;12.458;2022-10-16T05:40:36;15.60;95.90
65034;DHT22;51601;51.356;12.458;2022-10-16T05:44:51;15.60;95.90
65034;DHT22;51601;51.356;12.458;2022-10-16T05:49:04;15.60;95.80
65034;DHT22;51601;51.356;12.458;2022-10-16T05:53:18;15.60;95.70
65034;DHT22;51601;51.356;12.458;2022-10-16T05:57:37;15.70;95.80
65034;DHT22;51601;51.356;12.458;2022-10-16T06:01:52;15.70;95.70
65034;DHT22;51601;51.356;12.458;2022-10-16T06:06:11;15.80;95.70
65034;DHT22;51601;51.356;12.458;2022-10-16T06:10:25;15.90;95.40
65034;DHT22;51601;51.356;12.458;2022-10-16T06:14:39;16.00;95.20
65034;DHT22;51601;51.356;12.458;2022-10-16T06:18:55;16.20;95.00
65034;DHT22;51601;51.356;12.458;2022-10-16T06:23:09;16.30;94.80
65034;DHT22;51601;51.356;12.458;2022-10-16T06:27:22;16.50;94.30
65034;DHT22;51601;51.356;12.458;2022-10-16T06:31:36;16.70;93.90
65034;DHT22;51601;51.356;12.458;2022-10-16T06:35:51;16.70;93.40
65034;DHT22;51601;51.356;12.458;2022-10-16T06:40:06;16.90;93.10
65034;DHT22;51601;51.356;12.458;2022-10-16T06:44:20;17.00;92.60
65034;DHT22;51601;51.356;12.458;2022-10-16T06:48:34;17.10;92.40
65034;DHT22;51601;51.356;12.458;2022-10-16T06:52:49;17.20;92.10
65034;DHT22;51601;51.356;12.458;2022-10-16T06:57:03;17.20;91.60
65034;DHT22;51601;51.356;12.458;2022-10-16T07:01:18;17.20;91.50
65034;DHT22;51601;51.356;12.458;2022-10-16T07:05:36;17.20;91.40
65034;DHT22;51601;51.356;12.458;2022-10-16T07:09:52;17.10;91.40
65034;DHT22;51601;51.356;12.458;2022-10-16T07:14:14;17.20;91.50
65034;DHT22;51601;51.356;12.458;2022-10-16T07:18:28;17.20;92.00
65034;DHT22;51601;51.356;12.458;2022-10-16T07:22:44;17.10;92.60
65034;DHT22;51601;51.356;12.458;2022-10-16T07:26:59;17.10;92.90
65034;DHT22;51601;51.356;12.458;2022-10-16T07:31:15;17.10;93.10
65034;DHT22;51601;51.356;12.458;2022-10-16T07:35:28;17.10;93.20
65034;DHT22;51601;51.356;12.458;2022-10-16T07:39:42;17.20;93.20
65034;DHT22;51601;51.356;12.458;2022-10-16T07:43:57;17.50;92.80
65034;DHT22;51601;51.356;12.458;2022-10-16T07:48:12;17.70;91.90
65034;DHT22;51601;51.356;12.458;2022-10-16T07:52:26;17.80;91.70
65034;DHT22;51601;51.356;12.458;2022-10-16T07:56:40;18.00;91.00
65034;DHT22;51601;51.356;12.458;2022-10-16T08:00:57;18.30;90.50
65034;DHT22;51601;51.356;12.458;2022-10-16T08:05:11;18.80;89.70
65034;DHT22;51601;51.356;12.458;2022-10-16T08:09:24;19.30;86.30
65034;DHT22;51601;51.356;12.458;2022-10-16T08:13:38;19.70;84.60
65034;DHT22;51601;51.356;12.458;2022-10-16T08:17:58;20.80;87.50
65034;DHT22;51601;51.356;12.458;2022-10-16T08:22:12;22.90;76.60
65034;DHT22;51601;51.356;12.458;2022-10-16T08:26:30;24.40;69.90
65034;DHT22;51601;51.356;12.458;2022-10-16T08:30:44;25.90;63.90
65034;DHT22;51601;51.356;12.458;2022-10-16T08:34:59;26.90;59.10
65034;DHT22;51601;51.356;12.458;2022-10-16T08:39:13;26.70;56.90
65034;DHT22;51601;51.356;12.458;2022-10-16T08:43:41;26.10;56.40
65034;DHT22;51601;51.356;12.458;2022-10-16T08:48:08;25.30;57.70
65034;DHT22;51601;51.356;12.458;2022-10-16T08:52:29;24.80;58.40
65034;DHT22;51601;51.356;12.458;2022-10-16T08:56:44;24.40;59.20
65034;DHT22;51601;51.356;12.458;2022-10-16T09:01:00;24.10;59.50
65034;DHT22;51601;51.356;12.458;2022-10-16T09:05:30;23.80;60.50
65034;DHT22;51601;51.356;12.458;2022-10-16T09:10:04;23.80;60.90
65034;DHT22;51601;51.356;12.458;2022-10-16T09:14:37;24.00;60.60
65034;DHT22;51601;51.356;12.458;2022-10-16T09:18:57;24.30;60.60
65034;DHT22;51601;51.356;12.458;2022-10-16T09:23:16;24.90;59.20
65034;DHT22;51601;51.356;12.458;2022-10-16T09:27:31;25.70;57.00
65034;DHT22;51601;51.356;12.458;2022-10-16T09:31:45;26.40;55.40
65034;DHT22;51601;51.356;12.458;2022-10-16T09:35:59;27.00;53.30
65034;DHT22;51601;51.356;12.458;2022-10-16T09:40:25;27.10;52.60
65034;DHT22;51601;51.356;12.458;2022-10-16T09:44:41;27.30;52.80
65034;DHT22;51601;51.356;12.458;2022-10-16T09:48:56;27.60;52.60
65034;DHT22;51601;51.356;12.458;2022-10-16T09:53:12;28.10;51.70
65034;DHT22;51601;51.356;12.458;2022-10-16T09:57:26;28.90;50.40
65034;DHT22;51601;51.356;12.458;2022-10-16T10:01:45;29.00;48.80
65034;DHT22;51601;51.356;12.458;2022-10-16T10:06:01;28.40;48.80
65034;DHT22;51601;51.356;12.458;2022-10-16T10:10:21;27.70;49.90
65034;DHT22;51601;51.356;12.458;2022-10-16T10:14:37;26.90;51.10
65034;DHT22;51601;51.356;12.458;2022-10-16T10:18:59;26.30;52.50
65034;DHT22;51601;51.356;12.458;2022-10-16T10:23:21;25.90;53.60
65034;DHT22;51601;51.356;12.458;2022-10-16T10:27:39;25.70;54.30
65034;DHT22;51601;51.356;12.458;2022-10-16T10:32:04;25.50;54.30
65034;DHT22;51601;51.356;12.458;2022-10-16T10:36:29;25.20;54.80
65034;DHT22;51601;51.356;12.458;2022-10-16T10:40:49;24.80;55.80
65034;DHT22;51601;51.356;12.458;2022-10-16T10:45:18;24.50;56.50
65034;DHT22;51601;51.356;12.458;2022-10-16T10:49:44;24.30;57.10
65034;DHT22;51601;51.356;12.458;2022-10-16T10:54:13;24.00;57.80
65034;DHT22;51601;51.356;12.458;2022-10-16T11:03:19;23.50;59.40
65034;DHT22;51601;51.356;12.458;2022-10-16T11:07:45;23.20;60.20
65034;DHT22;51601;51.356;12.458;2022-10-16T11:12:06;23.00;61.50
65034;DHT22;51601;51.356;12.458;2022-10-16T11:16:27;23.00;61.20
65034;DHT22;51601;51.356;12.458;2022-10-16T11:20:44;22.90;61.60
65034;DHT22;51601;51.356;12.458;2022-10-16T11:25:04;23.00;61.50
65034;DHT22;51601;51.356;12.458;2022-10-16T11:29:26;22.90;61.40
65034;DHT22;51601;51.356;12.458;2022-10-16T11:33:44;22.90;61.70
65034;DHT22;51601;51.356;12.458;2022-10-16T11:38:02;23.00;61.80
65034;DHT22;51601;51.356;12.458;2022-10-16T11:42:21;23.10;61.80
65034;DHT22;51601;51.356;12.458;2022-10-16T11:46:40;23.20;61.70
65034;DHT22;51601;51.356;12.458;2022-10-16T11:51:16;23.30;61.40
65034;DHT22;51601;51.356;12.458;2022-10-16T11:55:35;23.40;61.30
65034;DHT22;51601;51.356;12.458;2022-10-16T11:59:59;23.50;61.00
65034;DHT22;51601;51.356;12.458;2022-10-16T12:04:30;23.50;60.90
65034;DHT22;51601;51.356;12.458;2022-10-16T12:08:47;23.50;60.90
65034;DHT22;51601;51.356;12.458;2022-10-16T12:13:00;23.50;61.00
65034;DHT22;51601;51.356;12.458;2022-10-16T12:17:26;23.50;60.80
65034;DHT22;51601;51.356;12.458;2022-10-16T12:21:42;23.30;61.00
65034;DHT22;51601;51.356;12.458;2022-10-16T12:25:57;23.20;61.30
65034;DHT22;51601;51.356;12.458;2022-10-16T12:30:21;23.20;61.60
65034;DHT22;51601;51.356;12.458;2022-10-16T12:34:41;23.20;61.60
65034;DHT22;51601;51.356;12.458;2022-10-16T12:38:57;23.20;61.60
65034;DHT22;51601;51.356;12.458;2022-10-16T12:43:24;23.20;61.60
65034;DHT22;51601;51.356;12.458;2022-10-16T12:47:49;23.20;61.90
65034;DHT22;51601;51.356;12.458;2022-10-16T12:52:03;23.20;62.00
65034;DHT22;51601;51.356;12.458;2022-10-16T12:56:24;23.30;61.80
65034;DHT22;51601;51.356;12.458;2022-10-16T13:00:45;23.30;61.90
65034;DHT22;51601;51.356;12.458;2022-10-16T13:05:09;23.30;61.90
65034;DHT22;51601;51.356;12.458;2022-10-16T13:09:45;23.30;61.90
65034;DHT22;51601;51.356;12.458;2022-10-16T13:14:33;23.10;62.10
65034;DHT22;51601;51.356;12.458;2022-10-16T13:18:56;23.00;62.80
65034;DHT22;51601;51.356;12.458;2022-10-16T13:23:17;22.90;62.80
65034;DHT22;51601;51.356;12.458;2022-10-16T13:27:39;22.80;62.70
65034;DHT22;51601;51.356;12.458;2022-10-16T13:31:56;22.70;63.00
65034;DHT22;51601;51.356;12.458;2022-10-16T13:36:19;22.60;63.50
65034;DHT22;51601;51.356;12.458;2022-10-16T13:40:33;22.50;64.50
65034;DHT22;51601;51.356;12.458;2022-10-16T13:44:49;22.40;63.90
65034;DHT22;51601;51.356;12.458;2022-10-16T13:49:12;22.30;64.10
65034;DHT22;51601;51.356;12.458;2022-10-16T13:53:26;22.10;64.50
65034;DHT22;51601;51.356;12.458;2022-10-16T13:57:41;22.00;65.00
65034;DHT22;51601;51.356;12.458;2022-10-16T14:01:56;21.90;65.40
65034;DHT22;51601;51.356;12.458;2022-10-16T14:06:14;21.80;65.70
65034;DHT22;51601;51.356;12.458;2022-10-16T14:10:31;21.70;65.80
65034;DHT22;51601;51.356;12.458;2022-10-16T14:14:47;21.70;66.70
65034;DHT22;51601;51.356;12.458;2022-10-16T14:19:04;21.60;66.00
65034;DHT22;51601;51.356;12.458;2022-10-16T14:23:23;21.50;66.10
65034;DHT22;51601;51.356;12.458;2022-10-16T14:27:38;21.40;66.30
65034;DHT22;51601;51.356;12.458;2022-10-16T14:31:55;21.20;66.70
65034;DHT22;51601;51.356;12.458;2022-10-16T14:36:13;21.10;67.30
65034;DHT22;51601;51.356;12.458;2022-10-16T14:40:30;21.00;67.80
65034;DHT22;51601;51.356;12.458;2022-10-16T14:44:45;20.90;68.20
65034;DHT22;51601;51.356;12.458;2022-10-16T14:49:02;20.90;68.40
65034;DHT22;51601;51.356;12.458;2022-10-16T14:53:16;20.90;68.70
65034;DHT22;51601;51.356;12.458;2022-10-16T14:57:33;20.90;68.80
65034;DHT22;51601;51.356;12.458;2022-10-16T15:01:49;20.80;69.00
65034;DHT22;51601;51.356;12.458;2022-10-16T15:06:03;20.80;69.00
65034;DHT22;51601;51.356;12.458;2022-10-16T15:10:17;20.70;69.30
65034;DHT22;51601;51.356;12.458;2022-10-16T15:14:33;20.70;69.50
65034;DHT22;51601;51.356;12.458;2022-10-16T15:18:46;20.60;69.80
65034;DHT22;51601;51.356;12.458;2022-10-16T15:23:01;20.60;69.90
65034;DHT22;51601;51.356;12.458;2022-10-16T15:27:15;20.70;70.10
65034;DHT22;51601;51.356;12.458;2022-10-16T15:31:30;20.80;70.20
65034;DHT22;51601;51.356;12.458;2022-10-16T15:35:47;20.90;70.00
65034;DHT22;51601;51.356;12.458;2022-10-16T15:40:01;21.00;69.80
65034;DHT22;51601;51.356;12.458;2022-10-16T15:44:15;20.90;69.80
65034;DHT22;51601;51.356;12.458;2022-10-16T15:48:30;20.80;70.10
65034;DHT22;51601;51.356;12.458;2022-10-16T15:52:44;20.80;70.30
65034;DHT22;51601;51.356;12.458;2022-10-16T15:56:58;20.70;70.60
65034;DHT22;51601;51.356;12.458;2022-10-16T16:01:12;20.70;70.90
65034;DHT22;51601;51.356;12.458;2022-10-16T16:05:27;20.70;71.10
65034;DHT22;51601;51.356;12.458;2022-10-16T16:09:41;20.60;71.20
65034;DHT22;51601;51.356;12.458;2022-10-16T16:13:56;20.60;71.30
65034;DHT22;51601;51.356;12.458;2022-10-16T16:18:10;20.50;71.50
65034;DHT22;51601;51.356;12.458;2022-10-16T16:22:26;20.50;71.70
65034;DHT22;51601;51.356;12.458;2022-10-16T16:26:41;20.30;72.10
65034;DHT22;51601;51.356;12.458;2022-10-16T16:30:55;20.20;72.30
65034;DHT22;51601;51.356;12.458;2022-10-16T16:35:09;20.00;72.40
65034;DHT22;51601;51.356;12.458;2022-10-16T16:39:24;19.80;73.50
65034;DHT22;51601;51.356;12.458;2022-10-16T16:43:38;19.70;73.30
65034;DHT22;51601;51.356;12.458;2022-10-16T16:47:52;19.60;74.10
65034;DHT22;51601;51.356;12.458;2022-10-16T16:52:06;19.60;74.30
65034;DHT22;51601;51.356;12.458;2022-10-16T16:56:22;19.50;75.00
65034;DHT22;51601;51.356;12.458;2022-10-16T17:00:36;19.50;75.20
65034;DHT22;51601;51.356;12.458;2022-10-16T17:05:08;19.40;75.80
65034;DHT22;51601;51.356;12.458;2022-10-16T17:09:23;19.30;77.50
65034;DHT22;51601;51.356;12.458;2022-10-16T17:13:38;19.30;77.70
65034;DHT22;51601;51.356;12.458;2022-10-16T17:17:52;19.10;79.90
65034;DHT22;51601;51.356;12.458;2022-10-16T17:22:06;19.10;82.00
65034;DHT22;51601;51.356;12.458;2022-10-16T17:26:20;19.00;83.60
65034;DHT22;51601;51.356;12.458;2022-10-16T17:30:35;19.00;84.50
65034;DHT22;51601;51.356;12.458;2022-10-16T17:34:49;19.00;84.90
65034;DHT22;51601;51.356;12.458;2022-10-16T17:39:05;19.00;85.10
65034;DHT22;51601;51.356;12.458;2022-10-16T17:43:19;19.00;85.10
65034;DHT22;51601;51.356;12.458;2022-10-16T17:47:34;19.00;84.80
65034;DHT22;51601;51.356;12.458;2022-10-16T17:51:52;19.10;84.70
65034;DHT22;51601;51.356;12.458;2022-10-16T17:56:11;19.10;84.40
65034;DHT22;51601;51.356;12.458;2022-10-16T18:00:26;19.10;84.60
65034;DHT22;51601;51.356;12.458;2022-10-16T18:04:42;19.00;84.50
65034;DHT22;51601;51.356;12.458;2022-10-16T18:08:57;19.00;84.60
65034;DHT22;51601;51.356;12.458;2022-10-16T18:13:11;19.00;85.30
65034;DHT22;51601;51.356;12.458;2022-10-16T18:17:25;18.90;86.60
65034;DHT22;51601;51.356;12.458;2022-10-16T18:21:41;18.80;87.30
65034;DHT22;51601;51.356;12.458;2022-10-16T18:25:55;18.70;87.70
65034;DHT22;51601;51.356;12.458;2022-10-16T18:30:09;18.70;88.10
65034;DHT22;51601;51.356;12.458;2022-10-16T18:34:23;18.70;88.10
65034;DHT22;51601;51.356;12.458;2022-10-16T18:38:40;18.70;88.00
65034;DHT22;51601;51.356;12.458;2022-10-16T18:42:54;18.70;88.00
65034;DHT22;51601;51.356;12.458;2022-10-16T18:47:08;18.70;88.30
65034;DHT22;51601;51.356;12.458;2022-10-16T18:51:27;18.70;89.40
65034;DHT22;51601;51.356;12.458;2022-10-16T18:55:42;18.70;89.20
65034;DHT22;51601;51.356;12.458;2022-10-16T18:59:56;18.60;89.50
65034;DHT22;51601;51.356;12.458;2022-10-16T19:04:12;18.50;89.70
65034;DHT22;51601;51.356;12.458;2022-10-16T19:08:29;18.50;90.00
65034;DHT22;51601;51.356;12.458;2022-10-16T19:12:48;18.50;90.00
65034;DHT22;51601;51.356;12.458;2022-10-16T19:17:02;18.40;90.10
65034;DHT22;51601;51.356;12.458;2022-10-16T19:21:20;18.40;90.20
65034;DHT22;51601;51.356;12.458;2022-10-16T19:25:37;18.40;90.10
65034;DHT22;51601;51.356;12.458;2022-10-16T19:29:55;18.40;90.00
65034;DHT22;51601;51.356;12.458;2022-10-16T19:34:10;18.40;89.90
65034;DHT22;51601;51.356;12.458;2022-10-16T19:38:23;18.40;89.70
65034;DHT22;51601;51.356;12.458;2022-10-16T19:42:37;18.40;89.50
65034;DHT22;51601;51.356;12.458;2022-10-16T19:46:57;18.30;89.50
65034;DHT22;51601;51.356;12.458;2022-10-16T19:51:12;18.20;90.10
65034;DHT22;51601;51.356;12.458;2022-10-16T19:55:29;18.20;90.40
65034;DHT22;51601;51.356;12.458;2022-10-16T19:59:44;18.10;90.50
65034;DHT22;51601;51.356;12.458;2022-10-16T20:03:59;18.10;90.40
65034;DHT22;51601;51.356;12.458;2022-10-16T20:08:12;18.10;90.30
65034;DHT22;51601;51.356;12.458;2022-10-16T20:12:26;18.20;90.10
65034;DHT22;51601;51.356;12.458;2022-10-16T20:16:40;18.20;90.00
65034;DHT22;51601;51.356;12.458;2022-10-16T20:20:55;18.20;89.70
65034;DHT22;51601;51.356;12.458;2022-10-16T20:25:13;18.20;89.40
65034;DHT22;51601;51.356;12.458;2022-10-16T20:29:30;18.30;89.00
65034;DHT22;51601;51.356;12.458;2022-10-16T20:33:44;18.20;88.80
65034;DHT22;51601;51.356;12.458;2022-10-16T20:37:59;18.20;88.60
65034;DHT22;51601;51.356;12.458;2022-10-16T20:42:13;18.10;88.50
65034;DHT22;51601;51.356;12.458;2022-10-16T20:46:28;18.00;88.80
65034;DHT22;51601;51.356;12.458;2022-10-16T20:50:42;17.90;88.90
65034;DHT22;51601;51.356;12.458;2022-10-16T20:54:58;17.80;89.40
65034;DHT22;51601;51.356;12.458;2022-10-16T20:59:12;17.80;89.90
65034;DHT22;51601;51.356;12.458;2022-10-16T21:03:30;17.70;90.20
65034;DHT22;51601;51.356;12.458;2022-10-16T21:07:45;17.60;90.30
65034;DHT22;51601;51.356;12.458;2022-10-16T21:12:01;17.60;90.30
65034;DHT22;51601;51.356;12.458;2022-10-16T21:16:15;17.50;90.20
65034;DHT22;51601;51.356;12.458;2022-10-16T21:20:28;17.50;90.40
65034;DHT22;51601;51.356;12.458;2022-10-16T21:24:42;17.40;90.80
65034;DHT22;51601;51.356;12.458;2022-10-16T21:28:58;17.40;91.00
65034;DHT22;51601;51.356;12.458;2022-10-16T21:33:13;17.30;91.10
65034;DHT22;51601;51.356;12.458;2022-10-16T21:37:26;17.40;91.10
65034;DHT22;51601;51.356;12.458;2022-10-16T21:41:42;17.40;91.10
65034;DHT22;51601;51.356;12.458;2022-10-16T21:45:57;17.40;91.10
65034;DHT22;51601;51.356;12.458;2022-10-16T21:50:11;17.40;91.00
65034;DHT22;51601;51.356;12.458;2022-10-16T21:54:25;17.40;91.00
65034;DHT22;51601;51.356;12.458;2022-10-16T21:58:39;17.40;91.10
65034;DHT22;51601;51.356;12.458;2022-10-16T22:02:54;17.30;91.10
65034;DHT22;51601;51.356;12.458;2022-10-16T22:07:09;17.30;91.20
65034;DHT22;51601;51.356;12.458;2022-10-16T22:11:26;17.30;91.30
65034;DHT22;51601;51.356;12.458;2022-10-16T22:15:47;17.30;91.40
65034;DHT22;51601;51.356;12.458;2022-10-16T22:20:06;17.20;91.60
65034;DHT22;51601;51.356;12.458;2022-10-16T22:24:19;17.20;91.70
65034;DHT22;51601;51.356;12.458;2022-10-16T22:28:34;17.20;91.70
65034;DHT22;51601;51.356;12.458;2022-10-16T22:32:48;17.20;91.80
65034;DHT22;51601;51.356;12.458;2022-10-16T22:37:04;17.20;91.80
65034;DHT22;51601;51.356;12.458;2022-10-16T22:41:18;17.20;91.80
65034;DHT22;51601;51.356;12.458;2022-10-16T22:45:32;17.10;91.90
65034;DHT22;51601;51.356;12.458;2022-10-16T22:49:47;17.10;91.90
65034;DHT22;51601;51.356;12.458;2022-10-16T22:54:02;17.10;92.00
65034;DHT22;51601;51.356;12.458;2022-10-16T22:58:16;17.00;92.10
65034;DHT22;51601;51.356;12.458;2022-10-16T23:02:30;16.90;92.20
65034;DHT22;51601;51.356;12.458;2022-10-16T23:06:44;16.80;92.20
65034;DHT22;51601;51.356;12.458;2022-10-16T23:10:59;16.70;92.40
65034;DHT22;51601;51.356;12.458;2022-10-16T23:15:13;16.60;92.50
65034;DHT22;51601;51.356;12.458;2022-10-16T23:19:27;16.50;92.70
65034;DHT22;51601;51.356;12.458;2022-10-16T23:23:42;16.40;93.00
65034;DHT22;51601;51.356;12.458;2022-10-16T23:27:57;16.20;93.30
65034;DHT22;51601;51.356;12.458;2022-10-16T23:32:11;16.20;93.50
65034;DHT22;51601;51.356;12.458;2022-10-16T23:36:24;16.10;93.70
65034;DHT22;51601;51.356;12.458;2022-10-16T23:40:38;16.00;93.80
65034;DHT22;51601;51.356;12.458;2022-10-16T23:44:56;15.90;94.20
65034;DHT22;51601;51.356;12.458;2022-10-16T23:49:10;15.90;94.40
65034;DHT22;51601;51.356;12.458;2022-10-16T23:53:23;15.90;94.50
65034;DHT22;51601;51.356;12.458;2022-10-16T23:57:37;15.80;94.70
